sensor_id;sensor_type;location;lat;lon;timestamp;pressure;altitude;pressure_sealevel;temperature;humidity
19831;BME280;10076;52.008;4.708;2023-04-04T00:00:28;103037.28;;;7.30;100.00
19831;BME280;10076;52.008;4.708;2023-04-04T00:02:53;103034.75;;;7.26;100.00
19831;BME280;10076;52.008;4.708;2023-04-04T00:05:18;103040.31;;;7.12;100.00
19831;BME280;10076;52.008;4.708;2023-04-04T00:07:47;103045.44;;;7.18;100.00
19831;BME280;10076;52.008;4.708;2023-04-04T00:10:13;103032.44;;;7.11;100.00
19831;BME280;10076;52.008;4.708;2023-04-04T00:12:38;103032.25;;;7.20;100.00
19831;BME280;10076;52.008;4.708;2023-04-04T00:15:04;103030.50;;;7.19;100.00
19831;BME280;10076;52.008;4.708;2023-04-04T00:17:29;103032.56;;;7.05;100.00
19831;BME280;10076;52.008;4.708;2023-04-04T00:19:55;103028.06;;;7.11;100.00
19831;BME280;10076;52.008;4.708;2023-04-04T00:22:22;103029.84;;;7.09;100.00
19831;BME280;10076;52.008;4.708;2023-04-04T00:24:47;103023.91;;;7.01;100.00
19831;BME280;10076;52.008;4.708;2023-04-04T00:27:13;103023.09;;;6.98;100.00
19831;BME280;10076;52.008;4.708;2023-04-04T00:29:38;103014.59;;;6.85;100.00
19831;BME280;10076;52.008;4.708;2023-04-04T00:32:04;103014.47;;;6.93;100.00
19831;BME280;10076;52.008;4.708;2023-04-04T00:34:29;103013.72;;;6.86;100.00
19831;BME280;10076;52.008;4.708;2023-04-04T00:36:55;103005.09;;;6.80;100.00
19831;BME280;10076;52.008;4.708;2023-04-04T00:39:20;103005.16;;;6.77;100.00
19831;BME280;10076;52.008;4.708;2023-04-04T00:41:48;103011.03;;;6.88;100.00
19831;BME280;10076;52.008;4.708;2023-04-04T00:44:13;103006.50;;;6.96;100.00
19831;BME280;10076;52.008;4.708;2023-04-04T00:46:38;103006.72;;;6.87;100.00
19831;BME280;10076;52.008;4.708;2023-04-04T00:49:04;102997.31;;;6.76;100.00
19831;BME280;10076;52.008;4.708;2023-04-04T00:51:30;103000.09;;;6.68;100.00
19831;BME280;10076;52.008;4.708;2023-04-04T00:53:56;103003.75;;;6.61;100.00
19831;BME280;10076;52.008;4.708;2023-04-04T00:56:22;103010.78;;;6.59;100.00
19831;BME280;10076;52.008;4.708;2023-04-04T00:58:48;103010.25;;;6.42;100.00
19831;BME280;10076;52.008;4.708;2023-04-04T01:01:13;103016.53;;;6.35;100.00
19831;BME280;10076;52.008;4.708;2023-04-04T01:03:39;103013.25;;;6.23;100.00
19831;BME280;10076;52.008;4.708;2023-04-04T01:06:06;103007.03;;;6.28;100.00
19831;BME280;10076;52.008;4.708;2023-04-04T01:08:33;103008.72;;;6.31;100.00
19831;BME280;10076;52.008;4.708;2023-04-04T01:11:00;103011.44;;;6.26;100.00
19831;BME280;10076;52.008;4.708;2023-04-04T01:13:26;103014.94;;;6.25;100.00
19831;BME280;10076;52.008;4.708;2023-04-04T01:15:51;103019.25;;;6.28;100.00
19831;BME280;10076;52.008;4.708;2023-04-04T01:18:19;103010.53;;;6.27;100.00
19831;BME280;10076;52.008;4.708;2023-04-04T01:20:56;103005.41;;;6.21;100.00
19831;BME280;10076;52.008;4.708;2023-04-04T01:23:35;103005.59;;;6.11;100.00
19831;BME280;10076;52.008;4.708;2023-04-04T01:26:07;103007.25;;;6.17;100.00
19831;BME280;10076;52.008;4.708;2023-04-04T01:28:33;103009.09;;;6.12;100.00
19831;BME280;10076;52.008;4.708;2023-04-04T01:30:59;103007.22;;;6.18;100.00
19831;BME280;10076;52.008;4.708;2023-04-04T01:33:28;103001.97;;;6.18;100.00
19831;BME280;10076;52.008;4.708;2023-04-04T01:38:52;102997.78;;;6.07;100.00
19831;BME280;10076;52.008;4.708;2023-04-04T01:41:19;102999.91;;;5.87;100.00
19831;BME280;10076;52.008;4.708;2023-04-04T01:43:44;102994.56;;;5.93;100.00
19831;BME280;10076;52.008;4.708;2023-04-04T01:46:15;102998.81;;;5.98;100.00
19831;BME280;10076;52.008;4.708;2023-04-04T01:48:41;103001.66;;;5.88;100.00
19831;BME280;10076;52.008;4.708;2023-04-04T01:51:06;102996.41;;;5.88;100.00
19831;BME280;10076;52.008;4.708;2023-04-04T01:53:32;102998.06;;;5.92;100.00
19831;BME280;10076;52.008;4.708;2023-04-04T01:55:58;102998.16;;;5.89;100.00
19831;BME280;10076;52.008;4.708;2023-04-04T01:58:23;102997.47;;;5.75;100.00
19831;BME280;10076;52.008;4.708;2023-04-04T02:00:49;102996.41;;;5.88;100.00
19831;BME280;10076;52.008;4.708;2023-04-04T02:03:14;102997.44;;;5.79;100.00
19831;BME280;10076;52.008;4.708;2023-04-04T02:05:39;102995.00;;;5.66;100.00
19831;BME280;10076;52.008;4.708;2023-04-04T02:08:05;103001.03;;;5.71;100.00
19831;BME280;10076;52.008;4.708;2023-04-04T02:10:30;102998.72;;;5.53;100.00
19831;BME280;10076;52.008;4.708;2023-04-04T02:12:56;103005.69;;;5.54;100.00
19831;BME280;10076;52.008;4.708;2023-04-04T02:15:22;103014.28;;;5.62;100.00
19831;BME280;10076;52.008;4.708;2023-04-04T02:17:48;103009.16;;;5.54;100.00
19831;BME280;10076;52.008;4.708;2023-04-04T02:20:14;103008.09;;;5.67;100.00
19831;BME280;10076;52.008;4.708;2023-04-04T02:22:39;103012.78;;;5.46;100.00
19831;BME280;10076;52.008;4.708;2023-04-04T02:25:05;103007.53;;;5.46;100.00
19831;BME280;10076;52.008;4.708;2023-04-04T02:27:31;103020.03;;;5.29;100.00
19831;BME280;10076;52.008;4.708;2023-04-04T02:29:56;103014.44;;;5.53;100.00
19831;BME280;10076;52.008;4.708;2023-04-04T02:32:22;103012.88;;;5.40;100.00
19831;BME280;10076;52.008;4.708;2023-04-04T02:34:47;103019.03;;;5.38;100.00
19831;BME280;10076;52.008;4.708;2023-04-04T02:37:13;103014.88;;;5.23;100.00
19831;BME280;10076;52.008;4.708;2023-04-04T02:39:38;103013.66;;;5.45;100.00
19831;BME280;10076;52.008;4.708;2023-04-04T02:42:03;103001.44;;;5.46;100.00
19831;BME280;10076;52.008;4.708;2023-04-04T02:44:29;103004.09;;;5.43;100.00
19831;BME280;10076;52.008;4.708;2023-04-04T02:46:54;102996.16;;;5.48;100.00
19831;BME280;10076;52.008;4.708;2023-04-04T02:49:20;102996.50;;;5.25;100.00
19831;BME280;10076;52.008;4.708;2023-04-04T02:51:45;102992.16;;;5.25;100.00
19831;BME280;10076;52.008;4.708;2023-04-04T02:54:10;102988.59;;;5.29;100.00
19831;BME280;10076;52.008;4.708;2023-04-04T02:56:36;102979.88;;;5.27;100.00
19831;BME280;10076;52.008;4.708;2023-04-04T02:59:02;102973.66;;;5.34;100.00
19831;BME280;10076;52.008;4.708;2023-04-04T03:01:28;102976.34;;;5.31;100.00
19831;BME280;10076;52.008;4.708;2023-04-04T03:03:53;102975.59;;;5.23;100.00
19831;BME280;10076;52.008;4.708;2023-04-04T03:06:19;102969.75;;;5.05;100.00
19831;BME280;10076;52.008;4.708;2023-04-04T03:08:44;102962.50;;;5.23;100.00
19831;BME280;10076;52.008;4.708;2023-04-04T03:11:09;102960.13;;;5.08;100.00
19831;BME280;10076;52.008;4.708;2023-04-04T03:13:35;102968.06;;;5.02;100.00
19831;BME280;10076;52.008;4.708;2023-04-04T03:16:02;102969.75;;;5.03;100.00
19831;BME280;10076;52.008;4.708;2023-04-04T03:18:28;102964.25;;;5.21;100.00
19831;BME280;10076;52.008;4.708;2023-04-04T03:20:54;102970.44;;;5.17;100.00
19831;BME280;10076;52.008;4.708;2023-04-04T03:23:19;102978.47;;;5.05;100.00
19831;BME280;10076;52.008;4.708;2023-04-04T03:25:45;102982.03;;;5.01;100.00
19831;BME280;10076;52.008;4.708;2023-04-04T03:28:10;102982.94;;;4.97;100.00
19831;BME280;10076;52.008;4.708;2023-04-04T03:30:36;102987.25;;;5.00;100.00
19831;BME280;10076;52.008;4.708;2023-04-04T03:33:06;102986.53;;;4.92;100.00
19831;BME280;10076;52.008;4.708;2023-04-04T03:35:36;102989.09;;;4.96;100.00
19831;BME280;10076;52.008;4.708;2023-04-04T03:38:01;102994.41;;;4.90;100.00
19831;BME280;10076;52.008;4.708;2023-04-04T03:40:27;102988.41;;;4.81;100.00
19831;BME280;10076;52.008;4.708;2023-04-04T03:42:53;102991.00;;;4.82;100.00
19831;BME280;10076;52.008;4.708;2023-04-04T03:45:18;102992.81;;;4.78;100.00
19831;BME280;10076;52.008;4.708;2023-04-04T03:47:43;102990.22;;;4.78;100.00
19831;BME280;10076;52.008;4.708;2023-04-04T03:50:09;102992.75;;;4.83;100.00
19831;BME280;10076;52.008;4.708;2023-04-04T03:52:37;102994.47;;;4.83;100.00
19831;BME280;10076;52.008;4.708;2023-04-04T03:55:05;102994.44;;;4.86;100.00
19831;BME280;10076;52.008;4.708;2023-04-04T03:57:31;102988.38;;;4.84;100.00
19831;BME280;10076;52.008;4.708;2023-04-04T03:59:57;102988.44;;;4.78;100.00
19831;BME280;10076;52.008;4.708;2023-04-04T04:02:22;102980.69;;;4.71;100.00
19831;BME280;10076;52.008;4.708;2023-04-04T04:04:48;102984.13;;;4.76;100.00
19831;BME280;10076;52.008;4.708;2023-04-04T04:07:13;102987.53;;;4.80;100.00
19831;BME280;10076;52.008;4.708;2023-04-04T04:09:38;102987.63;;;4.76;100.00
19831;BME280;10076;52.008;4.708;2023-04-04T04:12:04;102985.97;;;4.68;100.00
19831;BME280;10076;52.008;4.708;2023-04-04T04:14:29;102992.00;;;4.71;100.00
19831;BME280;10076;52.008;4.708;2023-04-04T04:16:54;102983.38;;;4.68;100.00
19831;BME280;10076;52.008;4.708;2023-04-04T04:19:20;102994.81;;;4.58;100.00
19831;BME280;10076;52.008;4.708;2023-04-04T04:21:45;102982.63;;;4.55;100.00
19831;BME280;10076;52.008;4.708;2023-04-04T04:24:10;102984.25;;;4.67;100.00
19831;BME280;10076;52.008;4.708;2023-04-04T04:26:36;102985.06;;;4.69;100.00
19831;BME280;10076;52.008;4.708;2023-04-04T04:29:01;102992.06;;;4.68;100.00
19831;BME280;10076;52.008;4.708;2023-04-04T04:31:26;102993.97;;;4.56;100.00
19831;BME280;10076;52.008;4.708;2023-04-04T04:33:52;102995.69;;;4.58;100.00
19831;BME280;10076;52.008;4.708;2023-04-04T04:36:17;102991.22;;;4.66;100.00
19831;BME280;10076;52.008;4.708;2023-04-04T04:38:42;102993.00;;;4.64;100.00
19831;BME280;10076;52.008;4.708;2023-04-04T04:41:08;102993.91;;;4.62;100.00
19831;BME280;10076;52.008;4.708;2023-04-04T04:43:33;102993.16;;;4.52;100.00
19831;BME280;10076;52.008;4.708;2023-04-04T04:46:01;102993.19;;;4.48;100.00
19831;BME280;10076;52.008;4.708;2023-04-04T04:48:26;102994.09;;;4.45;100.00
19831;BME280;10076;52.008;4.708;2023-04-04T04:50:51;102996.72;;;4.45;100.00
19831;BME280;10076;52.008;4.708;2023-04-04T04:53:17;103001.09;;;4.42;100.00
19831;BME280;10076;52.008;4.708;2023-04-04T04:55:42;102998.38;;;4.51;100.00
19831;BME280;10076;52.008;4.708;2023-04-04T04:58:08;102999.25;;;4.51;100.00
19831;BME280;10076;52.008;4.708;2023-04-04T05:00:35;102998.34;;;4.54;100.00
19831;BME280;10076;52.008;4.708;2023-04-04T05:03:00;103000.94;;;4.55;100.00
19831;BME280;10076;52.008;4.708;2023-04-04T05:05:26;102996.59;;;4.54;100.00
19831;BME280;10076;52.008;4.708;2023-04-04T05:07:52;103008.75;;;4.57;100.00
19831;BME280;10076;52.008;4.708;2023-04-04T05:10:17;103004.47;;;4.53;100.00
19831;BME280;10076;52.008;4.708;2023-04-04T05:12:43;103007.03;;;4.54;100.00
19831;BME280;10076;52.008;4.708;2023-04-04T05:15:09;103007.00;;;4.62;100.00
19831;BME280;10076;52.008;4.708;2023-04-04T05:17:36;103005.47;;;4.43;100.00
19831;BME280;10076;52.008;4.708;2023-04-04T05:20:01;103010.78;;;4.34;100.00
19831;BME280;10076;52.008;4.708;2023-04-04T05:22:26;103005.47;;;4.43;100.00
19831;BME280;10076;52.008;4.708;2023-04-04T05:24:52;103001.94;;;4.45;100.00
19831;BME280;10076;52.008;4.708;2023-04-04T05:27:17;103008.03;;;4.44;100.00
19831;BME280;10076;52.008;4.708;2023-04-04T05:29:43;103007.06;;;4.53;100.00
19831;BME280;10076;52.008;4.708;2023-04-04T05:32:11;103016.59;;;4.60;100.00
19831;BME280;10076;52.008;4.708;2023-04-04T05:34:36;103013.97;;;4.60;100.00
19831;BME280;10076;52.008;4.708;2023-04-04T05:37:01;103018.41;;;4.52;100.00
19831;BME280;10076;52.008;4.708;2023-04-04T05:39:27;103016.53;;;4.63;100.00
19831;BME280;10076;52.008;4.708;2023-04-04T05:41:52;103012.16;;;4.65;100.00
19831;BME280;10076;52.008;4.708;2023-04-04T05:44:18;103024.34;;;4.67;100.00
19831;BME280;10076;52.008;4.708;2023-04-04T05:46:43;103022.63;;;4.65;100.00
19831;BME280;10076;52.008;4.708;2023-04-04T05:49:08;103016.41;;;4.75;100.00
19831;BME280;10076;52.008;4.708;2023-04-04T05:51:33;103020.75;;;4.76;100.00
19831;BME280;10076;52.008;4.708;2023-04-04T05:53:59;103017.19;;;4.79;100.00
19831;BME280;10076;52.008;4.708;2023-04-04T05:56:24;103010.09;;;4.90;100.00
19831;BME280;10076;52.008;4.708;2023-04-04T05:58:50;103012.63;;;4.95;100.00
19831;BME280;10076;52.008;4.708;2023-04-04T06:01:15;103008.88;;;5.15;100.00
19831;BME280;10076;52.008;4.708;2023-04-04T06:03:41;103013.13;;;5.22;100.00
19831;BME280;10076;52.008;4.708;2023-04-04T06:06:07;103023.50;;;5.31;100.00
19831;BME280;10076;52.008;4.708;2023-04-04T06:08:32;103017.34;;;5.32;100.00
19831;BME280;10076;52.008;4.708;2023-04-04T06:10:57;103012.94;;;5.36;100.00
19831;BME280;10076;52.008;4.708;2023-04-04T06:13:22;103011.84;;;5.50;100.00
19831;BME280;10076;52.008;4.708;2023-04-04T06:15:48;103017.72;;;5.65;100.00
19831;BME280;10076;52.008;4.708;2023-04-04T06:18:14;103010.00;;;5.56;100.00
19831;BME280;10076;52.008;4.708;2023-04-04T06:20:41;103006.44;;;5.60;100.00
19831;BME280;10076;52.008;4.708;2023-04-04T06:23:06;103008.88;;;5.72;100.00
19831;BME280;10076;52.008;4.708;2023-04-04T06:25:34;103021.06;;;5.75;100.00
19831;BME280;10076;52.008;4.708;2023-04-04T06:28:00;103009.50;;;5.88;100.00
19831;BME280;10076;52.008;4.708;2023-04-04T06:30:27;103015.41;;;6.00;100.00
19831;BME280;10076;52.008;4.708;2023-04-04T06:32:53;103014.44;;;6.04;100.00
19831;BME280;10076;52.008;4.708;2023-04-04T06:35:18;103008.16;;;6.14;100.00
19831;BME280;10076;52.008;4.708;2023-04-04T06:37:43;103010.75;;;6.16;100.00
19831;BME280;10076;52.008;4.708;2023-04-04T06:40:09;103017.44;;;6.31;100.00
19831;BME280;10076;52.008;4.708;2023-04-04T06:42:34;103019.91;;;6.40;100.00
19831;BME280;10076;52.008;4.708;2023-04-04T06:45:00;103014.38;;;6.55;100.00
19831;BME280;10076;52.008;4.708;2023-04-04T06:47:25;103012.81;;;6.45;100.00
19831;BME280;10076;52.008;4.708;2023-04-04T06:49:51;103019.69;;;6.51;100.00
19831;BME280;10076;52.008;4.708;2023-04-04T06:52:16;103023.69;;;6.70;100.00
19831;BME280;10076;52.008;4.708;2023-04-04T06:54:42;103026.13;;;6.80;100.00
19831;BME280;10076;52.008;4.708;2023-04-04T06:57:08;103024.38;;;6.79;100.00
19831;BME280;10076;52.008;4.708;2023-04-04T06:59:33;103029.38;;;6.91;100.00
19831;BME280;10076;52.008;4.708;2023-04-04T07:01:59;103028.63;;;6.86;100.00
19831;BME280;10076;52.008;4.708;2023-04-04T07:04:24;103030.09;;;6.99;100.00
19831;BME280;10076;52.008;4.708;2023-04-04T07:06:50;103033.28;;;7.13;100.00
19831;BME280;10076;52.008;4.708;2023-04-04T07:09:15;103025.25;;;7.19;100.00
19831;BME280;10076;52.008;4.708;2023-04-04T07:11:41;103029.16;;;7.39;100.00
19831;BME280;10076;52.008;4.708;2023-04-04T07:14:06;103029.13;;;7.42;100.00
19831;BME280;10076;52.008;4.708;2023-04-04T07:16:31;103032.91;;;7.65;100.00
19831;BME280;10076;52.008;4.708;2023-04-04T07:18:57;103026.16;;;7.55;100.00
19831;BME280;10076;52.008;4.708;2023-04-04T07:21:22;103022.25;;;7.71;100.00
19831;BME280;10076;52.008;4.708;2023-04-04T07:23:48;103027.91;;;7.90;100.00
19831;BME280;10076;52.008;4.708;2023-04-04T07:26:15;103033.06;;;7.94;100.00
19831;BME280;10076;52.008;4.708;2023-04-04T07:28:40;103037.66;;;7.86;100.00
19831;BME280;10076;52.008;4.708;2023-04-04T07:31:05;103039.34;;;7.89;100.00
19831;BME280;10076;52.008;4.708;2023-04-04T07:33:31;103039.22;;;7.93;100.00
19831;BME280;10076;52.008;4.708;2023-04-04T07:35:56;103038.72;;;8.13;100.00
19831;BME280;10076;52.008;4.708;2023-04-04T07:38:21;103040.13;;;8.28;100.00
19831;BME280;10076;52.008;4.708;2023-04-04T07:40:48;103035.97;;;8.19;100.00
19831;BME280;10076;52.008;4.708;2023-04-04T07:43:14;103029.59;;;8.27;100.00
19831;BME280;10076;52.008;4.708;2023-04-04T07:45:39;103035.44;;;8.38;100.00
19831;BME280;10076;52.008;4.708;2023-04-04T07:48:04;103037.47;;;8.60;100.00
19831;BME280;10076;52.008;4.708;2023-04-04T07:50:30;103030.69;;;8.52;100.00
19831;BME280;10076;52.008;4.708;2023-04-04T07:52:55;103020.94;;;8.55;100.00
19831;BME280;10076;52.008;4.708;2023-04-04T07:55:22;103024.56;;;8.82;100.00
19831;BME280;10076;52.008;4.708;2023-04-04T07:57:49;103025.97;;;8.93;100.00
19831;BME280;10076;52.008;4.708;2023-04-04T08:00:16;103030.69;;;9.12;100.00
19831;BME280;10076;52.008;4.708;2023-04-04T08:02:45;103018.75;;;9.28;100.00
19831;BME280;10076;52.008;4.708;2023-04-04T08:05:11;103023.50;;;9.17;100.00
19831;BME280;10076;52.008;4.708;2023-04-04T08:07:36;103024.63;;;9.36;100.00
19831;BME280;10076;52.008;4.708;2023-04-04T08:10:01;103021.00;;;9.40;100.00
19831;BME280;10076;52.008;4.708;2023-04-04T08:12:27;103020.69;;;9.76;100.00
19831;BME280;10076;52.008;4.708;2023-04-04T08:14:52;103022.00;;;9.63;100.00
19831;BME280;10076;52.008;4.708;2023-04-04T08:17:17;103019.66;;;9.55;100.00
19831;BME280;10076;52.008;4.708;2023-04-04T08:19:44;103021.09;;;9.64;100.00
19831;BME280;10076;52.008;4.708;2023-04-04T08:22:10;103028.69;;;9.73;100.00
19831;BME280;10076;52.008;4.708;2023-04-04T08:24:35;103021.81;;;9.95;100.00
19831;BME280;10076;52.008;4.708;2023-04-04T08:27:01;103030.50;;;10.25;100.00
19831;BME280;10076;52.008;4.708;2023-04-04T08:29:26;103025.13;;;10.28;100.00
19831;BME280;10076;52.008;4.708;2023-04-04T08:31:53;103016.38;;;10.01;100.00
19831;BME280;10076;52.008;4.708;2023-04-04T08:34:18;103026.03;;;10.27;100.00
19831;BME280;10076;52.008;4.708;2023-04-04T08:36:45;103022.69;;;10.46;100.00
19831;BME280;10076;52.008;4.708;2023-04-04T08:39:10;103014.06;;;10.88;100.00
19831;BME280;10076;52.008;4.708;2023-04-04T08:41:36;103020.25;;;11.10;100.00
19831;BME280;10076;52.008;4.708;2023-04-04T08:44:02;103014.00;;;11.12;100.00
19831;BME280;10076;52.008;4.708;2023-04-04T08:46:29;103011.06;;;11.41;94.07
19831;BME280;10076;52.008;4.708;2023-04-04T08:48:55;103002.16;;;11.67;95.97
19831;BME280;10076;52.008;4.708;2023-04-04T08:51:21;103012.34;;;11.97;100.00
19831;BME280;10076;52.008;4.708;2023-04-04T08:53:49;103016.19;;;12.30;94.21
19831;BME280;10076;52.008;4.708;2023-04-04T08:56:15;103015.03;;;12.75;91.00
19831;BME280;10076;52.008;4.708;2023-04-04T08:58:41;103009.38;;;13.20;85.03
19831;BME280;10076;52.008;4.708;2023-04-04T09:01:06;103023.47;;;13.58;95.35
19831;BME280;10076;52.008;4.708;2023-04-04T09:03:32;103019.50;;;13.66;92.98
19831;BME280;10076;52.008;4.708;2023-04-04T09:06:00;103014.03;;;13.69;90.56
19831;BME280;10076;52.008;4.708;2023-04-04T09:08:27;103016.38;;;13.75;87.44
19831;BME280;10076;52.008;4.708;2023-04-04T09:10:52;103013.00;;;13.90;90.70
19831;BME280;10076;52.008;4.708;2023-04-04T09:13:18;103028.44;;;14.17;83.83
19831;BME280;10076;52.008;4.708;2023-04-04T09:15:51;103022.22;;;14.00;83.99
19831;BME280;10076;52.008;4.708;2023-04-04T09:18:18;103029.81;;;14.24;86.43
19831;BME280;10076;52.008;4.708;2023-04-04T09:20:45;103017.22;;;14.61;80.21
19831;BME280;10076;52.008;4.708;2023-04-04T09:23:13;103025.97;;;15.28;79.68
19831;BME280;10076;52.008;4.708;2023-04-04T09:25:48;103028.75;;;16.74;69.22
19831;BME280;10076;52.008;4.708;2023-04-04T09:28:15;103025.06;;;17.85;64.16
19831;BME280;10076;52.008;4.708;2023-04-04T09:30:40;103026.63;;;19.27;59.05
19831;BME280;10076;52.008;4.708;2023-04-04T09:33:08;103021.59;;;20.39;57.04
19831;BME280;10076;52.008;4.708;2023-04-04T09:35:36;103032.19;;;21.52;50.64
19831;BME280;10076;52.008;4.708;2023-04-04T09:38:02;103025.22;;;22.02;48.19
19831;BME280;10076;52.008;4.708;2023-04-04T09:40:28;103027.59;;;22.68;44.95
19831;BME280;10076;52.008;4.708;2023-04-04T09:42:54;103027.13;;;23.03;45.80
19831;BME280;10076;52.008;4.708;2023-04-04T09:45:23;103026.66;;;23.38;41.08
19831;BME280;10076;52.008;4.708;2023-04-04T09:47:50;103015.31;;;23.44;40.13
19831;BME280;10076;52.008;4.708;2023-04-04T09:50:25;103022.09;;;24.53;40.57
19831;BME280;10076;52.008;4.708;2023-04-04T09:52:55;103017.44;;;24.91;40.23
19831;BME280;10076;52.008;4.708;2023-04-04T09:55:30;103017.59;;;24.90;37.77
19831;BME280;10076;52.008;4.708;2023-04-04T09:57:55;103017.56;;;24.99;37.04
19831;BME280;10076;52.008;4.708;2023-04-04T10:00:21;103018.94;;;25.76;36.43
19831;BME280;10076;52.008;4.708;2023-04-04T10:02:47;103015.34;;;26.27;35.30
19831;BME280;10076;52.008;4.708;2023-04-04T10:05:13;103016.09;;;26.80;35.69
19831;BME280;10076;52.008;4.708;2023-04-04T10:07:39;103025.06;;;27.88;33.36
19831;BME280;10076;52.008;4.708;2023-04-04T10:10:07;103018.94;;;28.97;29.99
19831;BME280;10076;52.008;4.708;2023-04-04T10:12:36;103022.59;;;28.18;31.67
19831;BME280;10076;52.008;4.708;2023-04-04T10:15:01;103018.06;;;29.05;30.34
19831;BME280;10076;52.008;4.708;2023-04-04T10:17:35;103011.41;;;29.07;30.47
19831;BME280;10076;52.008;4.708;2023-04-04T10:20:02;103016.94;;;29.30;29.13
19831;BME280;10076;52.008;4.708;2023-04-04T10:22:30;103015.84;;;29.54;30.89
19831;BME280;10076;52.008;4.708;2023-04-04T10:24:56;103019.22;;;30.31;30.03
19831;BME280;10076;52.008;4.708;2023-04-04T10:27:23;103013.94;;;31.67;28.21
19831;BME280;10076;52.008;4.708;2023-04-04T10:29:48;103012.75;;;31.41;29.51
19831;BME280;10076;52.008;4.708;2023-04-04T10:32:21;103011.16;;;31.61;28.38
19831;BME280;10076;52.008;4.708;2023-04-04T10:35:02;103001.00;;;32.11;26.56
19831;BME280;10076;52.008;4.708;2023-04-04T10:37:33;103005.03;;;32.15;25.62
19831;BME280;10076;52.008;4.708;2023-04-04T10:40:14;103001.63;;;31.92;26.47
19831;BME280;10076;52.008;4.708;2023-04-04T10:42:45;103003.72;;;30.83;26.18
19831;BME280;10076;52.008;4.708;2023-04-04T10:45:13;103002.50;;;31.57;27.69
19831;BME280;10076;52.008;4.708;2023-04-04T10:47:39;103005.06;;;32.01;26.92
19831;BME280;10076;52.008;4.708;2023-04-04T10:50:06;103002.03;;;33.19;25.64
19831;BME280;10076;52.008;4.708;2023-04-04T10:52:33;102998.31;;;32.99;24.15
19831;BME280;10076;52.008;4.708;2023-04-04T10:55:02;102996.91;;;33.50;25.27
19831;BME280;10076;52.008;4.708;2023-04-04T10:57:30;102980.34;;;33.77;23.92
19831;BME280;10076;52.008;4.708;2023-04-04T11:00:07;102984.00;;;34.42;24.43
19831;BME280;10076;52.008;4.708;2023-04-04T11:02:49;102986.91;;;34.86;23.01
19831;BME280;10076;52.008;4.708;2023-04-04T11:08:05;102957.50;;;32.43;23.97
19831;BME280;10076;52.008;4.708;2023-04-04T11:10:34;102973.47;;;34.20;24.49
19831;BME280;10076;52.008;4.708;2023-04-04T11:13:16;102965.81;;;34.67;23.03
19831;BME280;10076;52.008;4.708;2023-04-04T11:18:11;102955.13;;;35.97;23.82
19831;BME280;10076;52.008;4.708;2023-04-04T11:20:40;102957.91;;;35.16;23.53
19831;BME280;10076;52.008;4.708;2023-04-04T11:23:13;102951.59;;;36.14;22.77
19831;BME280;10076;52.008;4.708;2023-04-04T11:25:40;102954.88;;;37.43;22.81
19831;BME280;10076;52.008;4.708;2023-04-04T11:28:14;102950.84;;;37.86;20.75
19831;BME280;10076;52.008;4.708;2023-04-04T11:34:05;102951.16;;;39.38;21.26
19831;BME280;10076;52.008;4.708;2023-04-04T11:41:55;102934.78;;;39.09;19.85
19831;BME280;10076;52.008;4.708;2023-04-04T11:44:23;102929.22;;;39.20;20.40
19831;BME280;10076;52.008;4.708;2023-04-04T11:47:09;102941.63;;;39.06;20.93
19831;BME280;10076;52.008;4.708;2023-04-04T11:49:39;102925.94;;;38.84;19.60
19831;BME280;10076;52.008;4.708;2023-04-04T11:52:12;102924.56;;;39.65;19.85
19831;BME280;10076;52.008;4.708;2023-04-04T11:54:39;102921.53;;;39.66;20.68
19831;BME280;10076;52.008;4.708;2023-04-04T11:57:06;102921.16;;;39.74;19.24
19831;BME280;10076;52.008;4.708;2023-04-04T11:59:32;102912.44;;;39.82;19.88
19831;BME280;10076;52.008;4.708;2023-04-04T12:01:59;102906.41;;;38.17;21.09
19831;BME280;10076;52.008;4.708;2023-04-04T12:04:25;102898.06;;;37.06;22.16
19831;BME280;10076;52.008;4.708;2023-04-04T12:06:53;102902.91;;;36.75;20.79
19831;BME280;10076;52.008;4.708;2023-04-04T12:09:19;102900.13;;;37.29;19.90
19831;BME280;10076;52.008;4.708;2023-04-04T12:11:48;102905.75;;;38.15;21.12
19831;BME280;10076;52.008;4.708;2023-04-04T12:14:18;102899.44;;;38.60;21.20
19831;BME280;10076;52.008;4.708;2023-04-04T12:16:46;102905.41;;;40.08;20.29
19831;BME280;10076;52.008;4.708;2023-04-04T12:19:12;102900.22;;;41.08;19.38
19831;BME280;10076;52.008;4.708;2023-04-04T12:21:37;102893.41;;;40.94;18.39
19831;BME280;10076;52.008;4.708;2023-04-04T12:24:03;102887.06;;;40.39;18.90
19831;BME280;10076;52.008;4.708;2023-04-04T12:26:29;102890.19;;;39.61;18.45
19831;BME280;10076;52.008;4.708;2023-04-04T12:28:56;102889.34;;;40.42;19.20
19831;BME280;10076;52.008;4.708;2023-04-04T12:31:24;102883.72;;;40.21;19.71
19831;BME280;10076;52.008;4.708;2023-04-04T12:33:50;102879.88;;;39.73;19.04
19831;BME280;10076;52.008;4.708;2023-04-04T12:36:16;102879.59;;;39.86;18.28
19831;BME280;10076;52.008;4.708;2023-04-04T12:39:00;102877.75;;;40.45;17.64
19831;BME280;10076;52.008;4.708;2023-04-04T12:41:26;102877.91;;;41.46;17.68
19831;BME280;10076;52.008;4.708;2023-04-04T12:44:05;102867.41;;;42.15;18.18
19831;BME280;10076;52.008;4.708;2023-04-04T12:46:35;102868.25;;;43.38;17.88
19831;BME280;10076;52.008;4.708;2023-04-04T12:49:02;102863.56;;;43.63;17.23
19831;BME280;10076;52.008;4.708;2023-04-04T12:51:30;102856.88;;;43.54;17.18
19831;BME280;10076;52.008;4.708;2023-04-04T12:53:57;102857.44;;;42.65;17.53
19831;BME280;10076;52.008;4.708;2023-04-04T12:56:27;102851.44;;;42.32;16.32
19831;BME280;10076;52.008;4.708;2023-04-04T12:58:52;102851.97;;;41.09;17.04
19831;BME280;10076;52.008;4.708;2023-04-04T13:01:19;102844.63;;;40.77;18.09
19831;BME280;10076;52.008;4.708;2023-04-04T13:03:45;102842.59;;;40.13;18.52